This is the latest recevied weather packets stored in our database for station/object KV4OP. If no packets are shown the sender has not sent any weather packets the latest 10 day(s).
| Time | Temp. | Humidity | Pressure | Rain* | Wind** | Luminosity | Snow |
|---|---|---|---|---|---|---|---|
| 1777567220 | 30° C | 56% | 1012 hPa | 0 mm | - | - | - |
| 1777566920 | 30° C | 55% | 1012.1 hPa | 0 mm | - | - | - |
| 1777566620 | 30° C | 55% | 1012.2 hPa | 0 mm | - | - | - |
| 1777566319 | 30° C | 54% | 1012.2 hPa | 0 mm | - | - | - |
| 1777566017 | 29.44° C | 56% | 1012.2 hPa | 0 mm | - | - | - |
| 1777565718 | 30° C | 57% | 1012.4 hPa | 0 mm | - | - | - |
| 1777565417 | 29.44° C | 58% | 1012.6 hPa | 0 mm | - | - | - |
| 1777565121 | 29.44° C | 58% | 1012.6 hPa | 0 mm | - | - | - |
| 1777564816 | 29.44° C | 57% | 1012.8 hPa | 0 mm | - | - | - |
| 1777564514 | 30° C | 57% | 1012.8 hPa | 0 mm | - | - | - |
| 1777564214 | 29.44° C | 61% | 1012.7 hPa | 0 mm | - | - | - |
| 1777563924 | 28.89° C | 61% | 1012.6 hPa | 0 mm | - | - | - |
| 1777563612 | 28.89° C | 61% | 1012.7 hPa | 0 mm | - | - | - |
| 1777563312 | 28.33° C | 64% | 1012.8 hPa | 0 mm | - | - | - |
| 1777563011 | 28.89° C | 63% | 1012.8 hPa | 0 mm | - | - | - |
| 1777562710 | 28.33° C | 64% | 1012.9 hPa | 0 mm | - | - | - |
| 1777562411 | 27.78° C | 66% | 1012.9 hPa | 0 mm | - | - | - |
| 1777562123 | 27.78° C | 65% | 1012.8 hPa | 0 mm | - | - | - |
| 1777561807 | 27.78° C | 67% | 1012.8 hPa | 0 mm | - | - | - |
| 1777561507 | 27.22° C | 68% | 1012.9 hPa | 0 mm | - | - | - |
| 1777561207 | 27.22° C | 67% | 1012.9 hPa | 0 mm | - | - | - |
| 1777560906 | 27.78° C | 66% | 1012.7 hPa | 0 mm | - | - | - |
| 1777560605 | 27.22° C | 69% | 1012.7 hPa | 0 mm | - | - | - |
| 1777560305 | 26.67° C | 69% | 1012.8 hPa | 0 mm | - | - | - |
| 1777560002 | 27.22° C | 69% | 1012.8 hPa | 0 mm | - | - | - |
* Rain latest hour (hover to see other rain measurements)
** Current wind speed in m/s (hover to see current wind gust speed)